createdAt,value
2017-09-17T00:01:40.286Z,2.77
2017-09-17T00:04:09.462Z,2.50
2017-09-17T00:06:38.651Z,3.10
2017-09-17T00:09:06.724Z,3.00
2017-09-17T00:11:34.950Z,2.17
2017-09-17T00:14:04.331Z,2.40
2017-09-17T00:16:32.727Z,2.30
2017-09-17T00:19:01.136Z,2.60
2017-09-17T00:21:29.564Z,2.53
2017-09-17T00:23:57.983Z,2.50
2017-09-17T00:26:26.405Z,2.60
2017-09-17T00:28:54.835Z,2.20
2017-09-17T00:31:23.246Z,9.50
2017-09-17T00:33:51.303Z,2.30
2017-09-17T00:36:18.862Z,2.40
2017-09-17T00:38:47.260Z,2.50
2017-09-17T00:41:14.794Z,2.63
2017-09-17T00:43:43.653Z,2.20
2017-09-17T00:46:12.136Z,3.93
2017-09-17T00:48:41.300Z,2.40
2017-09-17T00:51:09.818Z,1.90
2017-09-17T00:53:37.529Z,2.33
2017-09-17T00:56:06.007Z,1.83
2017-09-17T00:58:34.026Z,2.20
2017-09-17T01:01:01.768Z,2.30
2017-09-17T01:03:30.606Z,2.20
2017-09-17T01:05:58.330Z,1.80
2017-09-17T01:08:26.054Z,2.10
2017-09-17T01:10:54.523Z,2.40
2017-09-17T01:13:22.060Z,2.30
2017-09-17T01:15:50.550Z,2.10
2017-09-17T01:18:18.277Z,1.93
2017-09-17T01:20:46.796Z,1.90
2017-09-17T01:23:14.520Z,2.07
2017-09-17T01:25:42.224Z,2.17
2017-09-17T01:28:11.414Z,2.17
2017-09-17T01:30:40.583Z,2.07
2017-09-17T01:33:09.413Z,2.23
2017-09-17T01:35:37.842Z,1.60
2017-09-17T01:38:06.250Z,1.93
2017-09-17T01:40:34.662Z,2.00
2017-09-17T01:43:03.854Z,1.90
2017-09-17T01:45:32.523Z,1.90
2017-09-17T01:48:00.931Z,1.70
2017-09-17T01:50:29.626Z,1.90
2017-09-17T01:52:58.034Z,2.23
2017-09-17T01:55:26.438Z,1.97
2017-09-17T01:57:54.866Z,1.70
2017-09-17T02:00:22.938Z,1.93
2017-09-17T02:02:51.346Z,1.90
2017-09-17T02:05:20.215Z,1.90
2017-09-17T02:07:49.318Z,1.90
2017-09-17T02:10:17.716Z,2.23
2017-09-17T02:12:46.129Z,1.87
2017-09-17T02:15:15.295Z,1.60
2017-09-17T02:17:43.722Z,1.70
2017-09-17T02:20:12.131Z,2.00
2017-09-17T02:22:41.315Z,1.80
2017-09-17T02:25:10.476Z,1.53
2017-09-17T02:27:38.924Z,1.70
2017-09-17T02:30:07.321Z,1.83
2017-09-17T02:32:35.994Z,2.10
2017-09-17T02:35:05.182Z,1.70
2017-09-17T02:37:33.255Z,1.40
2017-09-17T02:40:01.674Z,1.80
2017-09-17T02:42:29.572Z,1.53
2017-09-17T02:44:57.780Z,1.30
2017-09-17T02:47:25.509Z,1.80
2017-09-17T02:49:53.982Z,1.47
2017-09-17T02:52:22.399Z,1.60
2017-09-17T02:54:50.810Z,1.80
2017-09-17T02:57:19.246Z,1.70
2017-09-17T02:59:47.677Z,1.70
2017-09-17T03:02:16.846Z,1.90
2017-09-17T03:04:46.038Z,1.60
2017-09-17T03:07:14.102Z,1.83
2017-09-17T03:09:42.504Z,1.60
2017-09-17T03:12:10.924Z,1.43
2017-09-17T03:14:39.324Z,1.40
2017-09-17T03:17:07.749Z,1.30
2017-09-17T03:19:36.170Z,1.20
2017-09-17T03:22:04.573Z,1.63
2017-09-17T03:24:32.974Z,1.80
2017-09-17T03:27:01.407Z,1.50
2017-09-17T03:29:29.807Z,1.47
2017-09-17T03:31:58.203Z,1.50
2017-09-17T03:34:27.787Z,1.50
2017-09-17T03:36:56.198Z,1.60
2017-09-17T03:39:24.419Z,1.60
2017-09-17T03:41:52.758Z,1.30
2017-09-17T03:44:21.174Z,1.47
2017-09-17T03:46:49.595Z,1.37
2017-09-17T03:49:17.688Z,1.40
2017-09-17T03:51:46.871Z,1.60
2017-09-17T03:54:15.274Z,1.53
2017-09-17T03:56:43.797Z,1.30
2017-09-17T03:59:12.214Z,1.50
2017-09-17T04:01:40.283Z,1.40
2017-09-17T04:04:08.709Z,1.30
2017-09-17T04:06:37.122Z,1.43
2017-09-17T04:09:06.299Z,1.30
2017-09-17T04:11:35.495Z,1.50
2017-09-17T04:14:03.906Z,1.30
2017-09-17T04:16:32.311Z,1.20
2017-09-17T04:19:01.510Z,1.40
2017-09-17T04:21:29.932Z,1.20
2017-09-17T04:23:58.406Z,1.30
2017-09-17T04:26:26.831Z,1.50
2017-09-17T04:28:55.248Z,1.30
2017-09-17T04:31:24.428Z,1.10
2017-09-17T04:33:53.613Z,1.30
2017-09-17T04:36:22.785Z,1.30
2017-09-17T04:38:51.953Z,1.43
2017-09-17T04:41:20.508Z,1.50
2017-09-17T04:43:48.928Z,1.37
2017-09-17T04:46:17.347Z,1.27
2017-09-17T04:48:45.778Z,1.30
2017-09-17T04:51:14.241Z,1.33
2017-09-17T04:53:42.641Z,1.30
2017-09-17T04:56:11.843Z,1.00
2017-09-17T04:58:40.944Z,1.30
2017-09-17T05:01:09.355Z,1.20
2017-09-17T05:03:37.802Z,1.20
2017-09-17T05:06:06.206Z,1.10
2017-09-17T05:08:35.388Z,1.10
2017-09-17T05:11:04.578Z,1.40
2017-09-17T05:13:33.003Z,1.20
2017-09-17T05:16:01.396Z,1.30
2017-09-17T05:18:30.578Z,1.20
2017-09-17T05:20:59.754Z,1.30
2017-09-17T05:23:28.939Z,1.50
2017-09-17T05:25:58.147Z,1.40
2017-09-17T05:28:26.572Z,1.10
2017-09-17T05:30:55.220Z,1.10
2017-09-17T05:33:23.458Z,1.20
2017-09-17T05:35:51.668Z,1.33
2017-09-17T05:38:20.832Z,1.13
2017-09-17T05:40:49.252Z,1.10
2017-09-17T05:43:17.674Z,1.17
2017-09-17T05:45:46.874Z,1.40
2017-09-17T05:48:14.633Z,1.17
2017-09-17T05:50:43.035Z,1.20
2017-09-17T05:53:11.448Z,1.10
2017-09-17T05:55:39.866Z,1.10
2017-09-17T05:58:08.291Z,1.07
2017-09-17T06:00:36.694Z,1.17
2017-09-17T06:03:04.926Z,1.17
2017-09-17T06:05:33.342Z,1.10
2017-09-17T06:08:02.522Z,1.20
2017-09-17T06:10:31.900Z,1.10
2017-09-17T06:13:01.060Z,1.17
2017-09-17T06:15:29.466Z,1.03
2017-09-17T06:17:57.903Z,1.07
2017-09-17T06:20:26.558Z,1.37
2017-09-17T06:22:54.960Z,1.20
2017-09-17T06:25:23.300Z,1.27
2017-09-17T06:27:52.286Z,1.10
2017-09-17T06:30:21.283Z,1.10
2017-09-17T06:32:49.719Z,1.20
2017-09-17T06:35:18.705Z,1.67
2017-09-17T06:37:47.692Z,1.00
2017-09-17T06:40:16.099Z,0.90
2017-09-17T06:42:44.326Z,1.00
2017-09-17T06:45:12.814Z,1.10
2017-09-17T06:47:41.235Z,1.00
2017-09-17T06:50:10.484Z,1.30
2017-09-17T06:52:38.705Z,8.10
2017-09-17T06:55:07.240Z,12.27
2017-09-17T06:57:36.400Z,11.50
2017-09-17T07:00:03.955Z,13.60
2017-09-17T07:02:32.207Z,14.33
2017-09-17T07:05:00.605Z,14.37
2017-09-17T07:07:29.023Z,12.50
2017-09-17T07:09:57.266Z,12.70
2017-09-17T07:12:25.682Z,13.87
2017-09-17T07:14:53.899Z,11.60
2017-09-17T07:17:22.443Z,8.60
2017-09-17T07:19:50.868Z,13.30
2017-09-17T07:22:19.198Z,7.30
2017-09-17T07:24:47.636Z,18.43
2017-09-17T07:27:16.043Z,7.07
2017-09-17T07:29:45.214Z,5.70
2017-09-17T07:32:14.407Z,8.40
2017-09-17T07:34:43.227Z,16.13
2017-09-17T07:37:11.644Z,7.90
2017-09-17T07:39:41.054Z,5.63
2017-09-17T07:42:09.467Z,5.27
2017-09-17T07:44:37.887Z,4.57
2017-09-17T07:47:06.314Z,5.30
2017-09-17T07:49:35.479Z,5.20
2017-09-17T07:52:03.954Z,8.23
2017-09-17T07:54:33.147Z,5.40
2017-09-17T07:57:02.140Z,7.17
2017-09-17T07:59:30.580Z,21.17
2017-09-17T08:01:59.791Z,10.60
2017-09-17T08:04:28.199Z,8.70
2017-09-17T08:06:56.412Z,13.87
2017-09-17T08:09:24.484Z,16.90
2017-09-17T08:11:52.898Z,8.03
2017-09-17T08:14:22.080Z,5.27
2017-09-17T08:27:03.890Z,9.87
2017-09-17T08:29:32.294Z,12.10
2017-09-17T08:32:00.714Z,12.27
2017-09-17T08:34:29.178Z,14.40
2017-09-17T08:36:57.586Z,11.73
2017-09-17T08:39:26.010Z,12.80
2017-09-17T08:41:54.463Z,9.10
2017-09-17T08:44:22.886Z,16.63
2017-09-17T08:46:51.303Z,10.83
2017-09-17T08:49:19.392Z,12.33
2017-09-17T08:51:47.461Z,11.07
2017-09-17T08:54:15.524Z,12.80
2017-09-17T08:56:44.717Z,10.97
2017-09-17T08:59:13.879Z,9.80
2017-09-17T09:01:41.613Z,11.23
2017-09-17T09:04:10.059Z,11.87
2017-09-17T09:06:38.511Z,11.00
2017-09-17T09:09:06.947Z,13.07
2017-09-17T09:11:36.122Z,9.87
2017-09-17T09:14:05.302Z,11.80
2017-09-17T09:16:34.465Z,9.70
2017-09-17T09:19:02.890Z,7.93
2017-09-17T09:21:31.119Z,9.27
2017-09-17T09:23:59.346Z,7.93
2017-09-17T09:26:27.773Z,8.10
2017-09-17T09:28:56.190Z,6.60
2017-09-17T09:31:25.352Z,7.70
2017-09-17T09:33:53.937Z,9.10
2017-09-17T09:36:23.114Z,15.23
2017-09-17T09:38:52.273Z,9.50
2017-09-17T09:41:20.684Z,9.17
2017-09-17T09:43:49.108Z,10.07
2017-09-17T09:46:17.518Z,9.43
2017-09-17T09:48:45.951Z,7.63
2017-09-17T09:51:15.111Z,5.97
2017-09-17T09:53:44.301Z,5.87
2017-09-17T09:56:12.972Z,9.13
2017-09-17T09:58:41.985Z,10.10
2017-09-17T10:01:10.609Z,7.93
2017-09-17T10:03:39.038Z,8.13
2017-09-17T10:06:07.799Z,8.80
2017-09-17T10:08:37.401Z,9.13
2017-09-17T10:11:08.224Z,7.00
2017-09-17T10:13:36.654Z,6.70
2017-09-17T10:16:05.863Z,5.00
2017-09-17T10:18:34.312Z,4.70
2017-09-17T10:21:02.757Z,7.60
2017-09-17T10:23:31.854Z,7.40
2017-09-17T10:26:00.311Z,5.30
2017-09-17T10:28:28.550Z,6.43
2017-09-17T10:30:57.750Z,10.63
2017-09-17T10:33:27.457Z,5.97
2017-09-17T10:35:55.419Z,4.87
2017-09-17T10:38:23.873Z,6.00
2017-09-17T10:40:52.346Z,4.90
2017-09-17T10:43:20.428Z,6.00
2017-09-17T10:45:49.097Z,5.63
2017-09-17T10:48:17.538Z,8.60
2017-09-17T10:50:46.004Z,6.60
2017-09-17T10:53:14.452Z,6.80
2017-09-17T10:55:42.959Z,5.27
2017-09-17T10:58:12.418Z,5.23
2017-09-17T11:00:40.833Z,7.33
2017-09-17T11:03:10.026Z,7.87
2017-09-17T11:05:38.460Z,4.23
2017-09-17T11:08:06.861Z,5.93
2017-09-17T11:10:35.280Z,5.13
2017-09-17T11:13:03.676Z,8.00
2017-09-17T11:15:32.104Z,3.87
2017-09-17T11:18:00.540Z,3.30
2017-09-17T11:20:28.941Z,4.70
2017-09-17T11:22:57.046Z,7.17
2017-09-17T11:25:25.507Z,3.10
2017-09-17T11:27:53.924Z,6.50
2017-09-17T11:30:22.328Z,2.87
2017-09-17T11:32:50.766Z,2.70
2017-09-17T11:35:19.938Z,2.63
2017-09-17T11:37:48.497Z,2.27
2017-09-17T11:40:16.965Z,2.50
2017-09-17T11:42:45.211Z,2.20
2017-09-17T11:45:13.631Z,2.70
2017-09-17T11:47:42.344Z,2.80
2017-09-17T11:50:11.014Z,3.00
2017-09-17T11:52:39.435Z,4.00
2017-09-17T11:55:07.858Z,3.80
2017-09-17T11:57:37.036Z,3.80
2017-09-17T12:00:05.088Z,4.00
2017-09-17T12:02:34.301Z,12.27
2017-09-17T12:05:02.018Z,3.60
2017-09-17T12:07:30.429Z,5.60
2017-09-17T12:09:58.513Z,3.53
2017-09-17T12:12:26.927Z,2.90
2017-09-17T12:14:55.338Z,2.77
2017-09-17T12:17:23.764Z,3.30
2017-09-17T12:19:51.986Z,3.13
2017-09-17T12:22:21.152Z,2.87
2017-09-17T12:24:49.585Z,4.10
2017-09-17T12:27:17.989Z,4.13
2017-09-17T12:29:46.403Z,4.03
2017-09-17T12:32:14.837Z,3.27
2017-09-17T12:34:44.017Z,2.80
2017-09-17T12:37:12.424Z,2.80
2017-09-17T12:39:40.856Z,5.03
2017-09-17T12:42:10.073Z,3.60
2017-09-17T12:44:38.479Z,3.10
2017-09-17T12:47:06.586Z,5.80
2017-09-17T12:49:34.994Z,3.80
2017-09-17T12:52:03.388Z,4.33
2017-09-17T12:54:32.274Z,3.00
2017-09-17T12:57:00.864Z,3.23
2017-09-17T12:59:29.278Z,3.10
2017-09-17T13:01:58.470Z,5.60
2017-09-17T13:04:26.892Z,4.10
2017-09-17T13:06:56.071Z,3.10
2017-09-17T13:09:24.494Z,3.00
2017-09-17T13:11:52.907Z,2.30
2017-09-17T13:14:21.318Z,2.30
2017-09-17T13:16:50.076Z,2.67
2017-09-17T13:19:18.496Z,3.10
2017-09-17T13:21:46.911Z,3.30
2017-09-17T13:24:14.992Z,5.63
2017-09-17T13:26:43.063Z,2.93
2017-09-17T13:29:11.272Z,5.83
2017-09-17T13:31:39.687Z,3.30
2017-09-17T13:34:08.115Z,10.13
2017-09-17T13:36:36.546Z,3.33
2017-09-17T13:39:04.984Z,2.70
2017-09-17T13:41:33.226Z,2.90
2017-09-17T13:44:01.434Z,3.37
2017-09-17T13:46:30.424Z,2.70
2017-09-17T13:48:58.654Z,3.10
2017-09-17T13:51:27.052Z,5.43
2017-09-17T13:53:55.292Z,4.53
2017-09-17T13:56:24.275Z,3.33
2017-09-17T13:58:52.189Z,5.13
2017-09-17T14:01:36.190Z,3.53
2017-09-17T14:04:06.934Z,2.80
2017-09-17T14:06:40.756Z,2.93
2017-09-17T14:12:18.703Z,3.10
2017-09-17T14:14:46.907Z,8.73
2017-09-17T14:17:15.142Z,3.03
2017-09-17T14:19:44.154Z,3.37
2017-09-17T14:22:12.379Z,3.23
2017-09-17T14:24:41.554Z,3.30
2017-09-17T14:27:09.980Z,3.90
2017-09-17T14:29:38.397Z,2.97
2017-09-17T14:32:07.048Z,3.87
2017-09-17T14:34:35.484Z,4.67
2017-09-17T14:37:03.895Z,2.70
2017-09-17T14:39:32.381Z,3.37
2017-09-17T14:42:00.817Z,4.30
2017-09-17T14:44:30.007Z,3.73
2017-09-17T14:46:59.183Z,3.20
2017-09-17T14:49:28.381Z,6.73
2017-09-17T14:51:56.776Z,3.27
2017-09-17T14:54:25.176Z,3.17
2017-09-17T14:56:53.619Z,2.90
2017-09-17T14:59:22.031Z,3.23
2017-09-17T15:01:50.442Z,3.33
2017-09-17T15:04:18.878Z,2.83
2017-09-17T15:06:47.306Z,2.73
2017-09-17T15:09:16.487Z,3.33
2017-09-17T15:11:45.686Z,3.70
2017-09-17T15:14:14.111Z,3.00
2017-09-17T15:16:42.517Z,2.80
2017-09-17T15:19:10.961Z,2.67
2017-09-17T15:21:40.137Z,2.30
2017-09-17T15:24:09.324Z,5.30
2017-09-17T15:26:38.517Z,3.03
2017-09-17T15:29:06.934Z,3.30
2017-09-17T15:31:35.355Z,2.97
2017-09-17T15:34:03.778Z,2.67
2017-09-17T15:36:32.199Z,2.53
2017-09-17T15:39:00.614Z,3.03
2017-09-17T15:41:29.806Z,2.80
2017-09-17T15:43:58.222Z,2.90
2017-09-17T15:46:26.634Z,2.73
2017-09-17T15:48:55.815Z,4.47
2017-09-17T15:51:24.239Z,2.53
2017-09-17T15:53:52.458Z,3.33
2017-09-17T15:56:20.882Z,3.50
2017-09-17T15:58:50.044Z,3.00
2017-09-17T16:01:18.315Z,2.63
2017-09-17T16:03:46.751Z,3.63
2017-09-17T16:06:15.143Z,2.30
2017-09-17T16:08:43.577Z,3.80
2017-09-17T16:11:12.040Z,2.33
2017-09-17T16:13:40.450Z,2.63
2017-09-17T16:16:08.930Z,2.87
2017-09-17T16:18:37.366Z,2.80
2017-09-17T16:21:06.362Z,3.90
2017-09-17T16:23:35.527Z,2.83
2017-09-17T16:26:04.717Z,2.63
2017-09-17T16:28:33.900Z,2.77
2017-09-17T16:31:03.070Z,4.43
2017-09-17T16:33:32.455Z,2.50
2017-09-17T16:36:00.877Z,4.70
2017-09-17T16:38:29.291Z,3.77
2017-09-17T16:40:58.486Z,6.77
2017-09-17T16:43:27.158Z,2.67
2017-09-17T16:45:55.580Z,3.37
2017-09-17T16:48:24.019Z,4.13
2017-09-17T16:50:52.408Z,3.60
2017-09-17T16:53:20.821Z,3.50
2017-09-17T16:55:49.250Z,4.30
2017-09-17T16:58:18.238Z,3.13
2017-09-17T17:00:47.231Z,3.00
2017-09-17T17:03:15.646Z,3.03
2017-09-17T17:05:44.068Z,3.50
2017-09-17T17:08:12.292Z,3.60
2017-09-17T17:10:41.500Z,6.70
2017-09-17T17:13:09.642Z,9.70
2017-09-17T17:15:38.818Z,8.90
2017-09-17T17:18:07.495Z,11.30
2017-09-17T17:20:35.910Z,5.60
2017-09-17T17:23:04.318Z,7.80
2017-09-17T17:25:32.751Z,10.30
2017-09-17T17:28:01.168Z,5.40
2017-09-17T17:30:29.567Z,5.73
2017-09-17T17:32:58.014Z,6.87
2017-09-17T17:35:26.414Z,5.47
2017-09-17T17:37:54.813Z,6.80
2017-09-17T17:40:23.247Z,6.80
2017-09-17T17:42:52.597Z,5.10
2017-09-17T17:45:20.804Z,5.03
2017-09-17T17:47:49.994Z,6.63
2017-09-17T17:50:18.407Z,6.37
2017-09-17T17:52:46.827Z,4.90
2017-09-17T17:55:15.248Z,4.80
2017-09-17T17:57:43.938Z,4.27
2017-09-17T18:00:13.096Z,4.90
2017-09-17T18:02:43.046Z,4.67
